sensor_id;sensor_type;location;lat;lon;timestamp;temperature;humidity
13322;DHT22;6730;46.248;6.930;2023-03-31T00:00:38;11.90;99.90
13322;DHT22;6730;46.248;6.930;2023-03-31T00:03:04;11.70;99.90
13322;DHT22;6730;46.248;6.930;2023-03-31T00:05:36;11.50;99.90
13322;DHT22;6730;46.248;6.930;2023-03-31T00:08:02;11.40;99.90
13322;DHT22;6730;46.248;6.930;2023-03-31T00:10:30;11.00;99.90
13322;DHT22;6730;46.248;6.930;2023-03-31T00:13:00;11.20;99.90
13322;DHT22;6730;46.248;6.930;2023-03-31T00:15:27;11.40;99.90
13322;DHT22;6730;46.248;6.930;2023-03-31T00:17:53;11.70;99.90
13322;DHT22;6730;46.248;6.930;2023-03-31T00:20:18;11.90;99.90
13322;DHT22;6730;46.248;6.930;2023-03-31T00:22:45;11.90;99.90
13322;DHT22;6730;46.248;6.930;2023-03-31T00:25:12;11.80;99.90
13322;DHT22;6730;46.248;6.930;2023-03-31T00:27:41;11.80;99.90
13322;DHT22;6730;46.248;6.930;2023-03-31T00:30:08;11.70;99.90
13322;DHT22;6730;46.248;6.930;2023-03-31T00:32:34;11.70;99.90
13322;DHT22;6730;46.248;6.930;2023-03-31T00:35:00;11.70;99.90
13322;DHT22;6730;46.248;6.930;2023-03-31T00:37:27;11.80;99.90
13322;DHT22;6730;46.248;6.930;2023-03-31T00:39:54;11.70;99.90
13322;DHT22;6730;46.248;6.930;2023-03-31T00:42:20;11.70;99.90
13322;DHT22;6730;46.248;6.930;2023-03-31T00:48:00;10.70;99.90
13322;DHT22;6730;46.248;6.930;2023-03-31T00:50:34;10.40;99.90
13322;DHT22;6730;46.248;6.930;2023-03-31T00:53:11;10.30;99.90
13322;DHT22;6730;46.248;6.930;2023-03-31T00:55:46;10.50;99.90
13322;DHT22;6730;46.248;6.930;2023-03-31T00:58:16;10.40;99.90
13322;DHT22;6730;46.248;6.930;2023-03-31T01:00:48;10.50;99.90
13322;DHT22;6730;46.248;6.930;2023-03-31T01:03:17;10.70;99.90
13322;DHT22;6730;46.248;6.930;2023-03-31T01:05:56;10.90;99.90
13322;DHT22;6730;46.248;6.930;2023-03-31T01:08:25;11.20;99.90
13322;DHT22;6730;46.248;6.930;2023-03-31T01:10:55;11.30;99.90
13322;DHT22;6730;46.248;6.930;2023-03-31T01:13:22;11.30;99.90
13322;DHT22;6730;46.248;6.930;2023-03-31T01:15:49;11.30;99.90
13322;DHT22;6730;46.248;6.930;2023-03-31T01:18:15;11.30;99.90
13322;DHT22;6730;46.248;6.930;2023-03-31T01:26:35;11.40;99.90
13322;DHT22;6730;46.248;6.930;2023-03-31T01:29:51;11.40;99.90
13322;DHT22;6730;46.248;6.930;2023-03-31T01:48:18;11.30;99.90
13322;DHT22;6730;46.248;6.930;2023-03-31T01:50:57;11.30;99.90
13322;DHT22;6730;46.248;6.930;2023-03-31T01:56:37;10.70;99.90
13322;DHT22;6730;46.248;6.930;2023-03-31T01:59:11;10.50;99.90
13322;DHT22;6730;46.248;6.930;2023-03-31T02:04:33;10.20;99.90
13322;DHT22;6730;46.248;6.930;2023-03-31T02:07:17;10.60;99.90
13322;DHT22;6730;46.248;6.930;2023-03-31T02:09:48;10.80;99.90
13322;DHT22;6730;46.248;6.930;2023-03-31T02:12:16;11.00;99.90
13322;DHT22;6730;46.248;6.930;2023-03-31T02:14:46;11.00;99.90
13322;DHT22;6730;46.248;6.930;2023-03-31T02:17:16;11.00;99.90
13322;DHT22;6730;46.248;6.930;2023-03-31T02:19:46;10.90;99.90
13322;DHT22;6730;46.248;6.930;2023-03-31T02:22:12;10.90;99.90
13322;DHT22;6730;46.248;6.930;2023-03-31T02:24:40;10.40;99.90
13322;DHT22;6730;46.248;6.930;2023-03-31T02:27:13;10.30;99.90
13322;DHT22;6730;46.248;6.930;2023-03-31T02:29:40;10.30;99.90
13322;DHT22;6730;46.248;6.930;2023-03-31T02:32:18;10.40;99.90
13322;DHT22;6730;46.248;6.930;2023-03-31T02:34:45;10.50;99.90
13322;DHT22;6730;46.248;6.930;2023-03-31T02:37:12;10.80;99.90
13322;DHT22;6730;46.248;6.930;2023-03-31T02:39:39;10.80;99.90
13322;DHT22;6730;46.248;6.930;2023-03-31T02:42:06;10.50;99.90
13322;DHT22;6730;46.248;6.930;2023-03-31T02:44:33;10.70;99.90
13322;DHT22;6730;46.248;6.930;2023-03-31T02:47:00;10.80;99.90
13322;DHT22;6730;46.248;6.930;2023-03-31T02:49:26;10.90;99.90
13322;DHT22;6730;46.248;6.930;2023-03-31T02:54:47;11.10;99.90
13322;DHT22;6730;46.248;6.930;2023-03-31T03:02:39;11.50;99.90
13322;DHT22;6730;46.248;6.930;2023-03-31T03:11:12;11.30;99.90
13322;DHT22;6730;46.248;6.930;2023-03-31T03:13:59;11.20;99.90
13322;DHT22;6730;46.248;6.930;2023-03-31T03:16:40;11.00;99.90
13322;DHT22;6730;46.248;6.930;2023-03-31T03:19:07;10.90;99.90
13322;DHT22;6730;46.248;6.930;2023-03-31T03:21:33;10.80;99.90
13322;DHT22;6730;46.248;6.930;2023-03-31T03:23:59;10.80;99.90
13322;DHT22;6730;46.248;6.930;2023-03-31T03:26:26;10.80;99.90
13322;DHT22;6730;46.248;6.930;2023-03-31T03:28:56;10.80;99.90
13322;DHT22;6730;46.248;6.930;2023-03-31T03:31:22;10.90;99.90
13322;DHT22;6730;46.248;6.930;2023-03-31T03:33:51;11.00;99.90
13322;DHT22;6730;46.248;6.930;2023-03-31T03:36:18;11.00;99.90
13322;DHT22;6730;46.248;6.930;2023-03-31T03:38:44;11.10;99.90
13322;DHT22;6730;46.248;6.930;2023-03-31T03:41:10;11.10;99.90
13322;DHT22;6730;46.248;6.930;2023-03-31T03:43:35;11.20;99.90
13322;DHT22;6730;46.248;6.930;2023-03-31T03:46:01;11.30;99.90
13322;DHT22;6730;46.248;6.930;2023-03-31T03:48:27;11.20;99.90
13322;DHT22;6730;46.248;6.930;2023-03-31T03:50:53;11.00;99.90
13322;DHT22;6730;46.248;6.930;2023-03-31T03:53:19;11.00;99.90
13322;DHT22;6730;46.248;6.930;2023-03-31T03:55:45;10.90;99.90
13322;DHT22;6730;46.248;6.930;2023-03-31T03:58:13;11.00;99.90
13322;DHT22;6730;46.248;6.930;2023-03-31T04:00:39;10.90;99.90
13322;DHT22;6730;46.248;6.930;2023-03-31T04:03:04;10.90;99.90
13322;DHT22;6730;46.248;6.930;2023-03-31T04:05:30;10.80;99.90
13322;DHT22;6730;46.248;6.930;2023-03-31T04:07:56;10.80;99.90
13322;DHT22;6730;46.248;6.930;2023-03-31T04:10:21;10.90;99.90
13322;DHT22;6730;46.248;6.930;2023-03-31T04:12:47;10.90;99.90
13322;DHT22;6730;46.248;6.930;2023-03-31T04:15:13;11.00;99.90
13322;DHT22;6730;46.248;6.930;2023-03-31T04:17:38;11.10;99.90
13322;DHT22;6730;46.248;6.930;2023-03-31T04:20:06;11.20;99.90
13322;DHT22;6730;46.248;6.930;2023-03-31T04:22:34;11.10;99.90
13322;DHT22;6730;46.248;6.930;2023-03-31T04:25:06;11.20;99.90
13322;DHT22;6730;46.248;6.930;2023-03-31T04:27:47;11.00;99.90
13322;DHT22;6730;46.248;6.930;2023-03-31T04:30:25;11.10;99.90
13322;DHT22;6730;46.248;6.930;2023-03-31T04:32:57;11.30;99.90
13322;DHT22;6730;46.248;6.930;2023-03-31T04:35:25;11.30;99.90
13322;DHT22;6730;46.248;6.930;2023-03-31T04:37:52;11.30;99.90
13322;DHT22;6730;46.248;6.930;2023-03-31T04:40:25;11.30;99.90
13322;DHT22;6730;46.248;6.930;2023-03-31T04:42:50;11.20;99.90
13322;DHT22;6730;46.248;6.930;2023-03-31T04:45:16;11.10;99.90
13322;DHT22;6730;46.248;6.930;2023-03-31T04:47:43;11.00;99.90
13322;DHT22;6730;46.248;6.930;2023-03-31T04:50:09;11.20;99.90
13322;DHT22;6730;46.248;6.930;2023-03-31T04:52:35;11.20;99.90
13322;DHT22;6730;46.248;6.930;2023-03-31T04:55:01;11.30;99.90
13322;DHT22;6730;46.248;6.930;2023-03-31T04:57:27;11.20;99.90
13322;DHT22;6730;46.248;6.930;2023-03-31T04:59:54;11.20;99.90
13322;DHT22;6730;46.248;6.930;2023-03-31T05:02:20;11.20;99.90
13322;DHT22;6730;46.248;6.930;2023-03-31T05:04:49;11.10;99.90
13322;DHT22;6730;46.248;6.930;2023-03-31T05:07:16;10.80;99.90
13322;DHT22;6730;46.248;6.930;2023-03-31T05:09:43;10.70;99.90
13322;DHT22;6730;46.248;6.930;2023-03-31T05:12:08;10.40;99.90
13322;DHT22;6730;46.248;6.930;2023-03-31T05:14:34;10.30;99.90
13322;DHT22;6730;46.248;6.930;2023-03-31T05:17:00;10.40;99.90
13322;DHT22;6730;46.248;6.930;2023-03-31T05:19:26;10.40;99.90
13322;DHT22;6730;46.248;6.930;2023-03-31T05:21:51;10.50;99.90
13322;DHT22;6730;46.248;6.930;2023-03-31T05:24:17;10.50;99.90
13322;DHT22;6730;46.248;6.930;2023-03-31T05:26:43;10.60;99.90
13322;DHT22;6730;46.248;6.930;2023-03-31T05:29:20;10.60;99.90
13322;DHT22;6730;46.248;6.930;2023-03-31T05:31:46;10.80;99.90
13322;DHT22;6730;46.248;6.930;2023-03-31T05:34:13;10.90;99.90
13322;DHT22;6730;46.248;6.930;2023-03-31T05:36:39;10.90;99.90
13322;DHT22;6730;46.248;6.930;2023-03-31T05:39:05;10.90;99.90
13322;DHT22;6730;46.248;6.930;2023-03-31T05:41:31;10.90;99.90
13322;DHT22;6730;46.248;6.930;2023-03-31T05:43:57;11.00;99.90
13322;DHT22;6730;46.248;6.930;2023-03-31T05:46:22;11.00;99.90
13322;DHT22;6730;46.248;6.930;2023-03-31T05:48:48;11.00;99.90
13322;DHT22;6730;46.248;6.930;2023-03-31T05:51:14;10.80;99.90
13322;DHT22;6730;46.248;6.930;2023-03-31T05:53:40;10.80;99.90
13322;DHT22;6730;46.248;6.930;2023-03-31T05:56:06;10.90;99.90
13322;DHT22;6730;46.248;6.930;2023-03-31T05:58:36;10.90;99.90
13322;DHT22;6730;46.248;6.930;2023-03-31T06:01:11;11.10;99.90
13322;DHT22;6730;46.248;6.930;2023-03-31T06:03:39;11.30;99.90
13322;DHT22;6730;46.248;6.930;2023-03-31T06:06:06;11.20;99.90
13322;DHT22;6730;46.248;6.930;2023-03-31T06:08:33;11.30;99.90
13322;DHT22;6730;46.248;6.930;2023-03-31T06:10:59;11.40;99.90
13322;DHT22;6730;46.248;6.930;2023-03-31T06:13:25;11.50;99.90
13322;DHT22;6730;46.248;6.930;2023-03-31T06:15:58;11.60;99.90
13322;DHT22;6730;46.248;6.930;2023-03-31T06:18:26;11.60;99.90
13322;DHT22;6730;46.248;6.930;2023-03-31T06:20:53;11.60;99.90
13322;DHT22;6730;46.248;6.930;2023-03-31T06:23:19;11.70;99.90
13322;DHT22;6730;46.248;6.930;2023-03-31T06:25:45;11.80;99.90
13322;DHT22;6730;46.248;6.930;2023-03-31T06:28:11;11.70;99.90
13322;DHT22;6730;46.248;6.930;2023-03-31T06:30:37;11.60;99.90
13322;DHT22;6730;46.248;6.930;2023-03-31T06:33:03;11.70;99.90
13322;DHT22;6730;46.248;6.930;2023-03-31T06:35:29;11.70;99.90
13322;DHT22;6730;46.248;6.930;2023-03-31T06:37:55;11.50;99.90
13322;DHT22;6730;46.248;6.930;2023-03-31T06:40:22;11.20;99.90
13322;DHT22;6730;46.248;6.930;2023-03-31T06:42:47;11.20;99.90
13322;DHT22;6730;46.248;6.930;2023-03-31T06:45:13;11.00;99.90
13322;DHT22;6730;46.248;6.930;2023-03-31T06:47:39;10.80;99.90
13322;DHT22;6730;46.248;6.930;2023-03-31T06:50:07;10.80;99.90
13322;DHT22;6730;46.248;6.930;2023-03-31T06:52:34;10.80;99.90
13322;DHT22;6730;46.248;6.930;2023-03-31T06:54:59;11.00;99.90
13322;DHT22;6730;46.248;6.930;2023-03-31T06:57:26;11.00;99.90
13322;DHT22;6730;46.248;6.930;2023-03-31T06:59:52;10.70;99.90
13322;DHT22;6730;46.248;6.930;2023-03-31T07:02:18;10.60;99.90
13322;DHT22;6730;46.248;6.930;2023-03-31T07:04:43;10.60;99.90
13322;DHT22;6730;46.248;6.930;2023-03-31T07:07:09;10.30;99.90
13322;DHT22;6730;46.248;6.930;2023-03-31T07:09:35;10.10;99.90
13322;DHT22;6730;46.248;6.930;2023-03-31T07:12:01;10.20;99.90
13322;DHT22;6730;46.248;6.930;2023-03-31T07:14:30;10.30;99.90
13322;DHT22;6730;46.248;6.930;2023-03-31T07:16:56;10.60;99.90
13322;DHT22;6730;46.248;6.930;2023-03-31T07:19:22;10.80;99.90
13322;DHT22;6730;46.248;6.930;2023-03-31T07:21:48;10.80;99.90
13322;DHT22;6730;46.248;6.930;2023-03-31T07:24:13;11.00;99.90
13322;DHT22;6730;46.248;6.930;2023-03-31T07:26:39;11.00;99.90
13322;DHT22;6730;46.248;6.930;2023-03-31T07:29:05;10.90;99.90
13322;DHT22;6730;46.248;6.930;2023-03-31T07:31:31;10.80;99.90
13322;DHT22;6730;46.248;6.930;2023-03-31T07:33:57;10.60;99.90
13322;DHT22;6730;46.248;6.930;2023-03-31T07:36:23;10.50;99.90
13322;DHT22;6730;46.248;6.930;2023-03-31T07:38:49;10.50;99.90
13322;DHT22;6730;46.248;6.930;2023-03-31T07:41:17;10.30;99.90
13322;DHT22;6730;46.248;6.930;2023-03-31T07:43:44;9.70;99.90
13322;DHT22;6730;46.248;6.930;2023-03-31T07:48:44;9.40;99.90
13322;DHT22;6730;46.248;6.930;2023-03-31T07:51:12;9.60;99.90
13322;DHT22;6730;46.248;6.930;2023-03-31T07:53:37;9.80;99.90
13322;DHT22;6730;46.248;6.930;2023-03-31T07:56:03;9.90;99.90
13322;DHT22;6730;46.248;6.930;2023-03-31T07:58:29;9.90;99.90
13322;DHT22;6730;46.248;6.930;2023-03-31T08:00:55;10.00;99.90
13322;DHT22;6730;46.248;6.930;2023-03-31T08:03:21;10.00;99.90
13322;DHT22;6730;46.248;6.930;2023-03-31T08:05:46;10.10;99.90
13322;DHT22;6730;46.248;6.930;2023-03-31T08:08:15;10.20;99.90
13322;DHT22;6730;46.248;6.930;2023-03-31T08:10:40;10.40;99.90
13322;DHT22;6730;46.248;6.930;2023-03-31T08:13:06;10.40;99.90
13322;DHT22;6730;46.248;6.930;2023-03-31T08:15:32;10.40;99.90
13322;DHT22;6730;46.248;6.930;2023-03-31T08:17:57;10.50;99.90
13322;DHT22;6730;46.248;6.930;2023-03-31T08:20:23;10.80;99.90
13322;DHT22;6730;46.248;6.930;2023-03-31T08:22:49;11.00;99.90
13322;DHT22;6730;46.248;6.930;2023-03-31T08:25:15;10.70;99.90
13322;DHT22;6730;46.248;6.930;2023-03-31T08:27:41;10.40;99.90
13322;DHT22;6730;46.248;6.930;2023-03-31T08:30:09;10.70;99.90
13322;DHT22;6730;46.248;6.930;2023-03-31T08:32:35;10.90;99.90
13322;DHT22;6730;46.248;6.930;2023-03-31T08:35:01;10.90;99.90
13322;DHT22;6730;46.248;6.930;2023-03-31T08:37:26;10.90;99.90
13322;DHT22;6730;46.248;6.930;2023-03-31T08:39:53;11.00;99.90
13322;DHT22;6730;46.248;6.930;2023-03-31T08:42:38;10.80;99.90
13322;DHT22;6730;46.248;6.930;2023-03-31T08:47:41;10.80;99.90
13322;DHT22;6730;46.248;6.930;2023-03-31T08:50:14;10.90;99.90
13322;DHT22;6730;46.248;6.930;2023-03-31T08:52:49;10.90;99.90
13322;DHT22;6730;46.248;6.930;2023-03-31T08:55:24;10.80;99.90
13322;DHT22;6730;46.248;6.930;2023-03-31T08:58:37;10.60;99.90
13322;DHT22;6730;46.248;6.930;2023-03-31T09:12:04;11.30;99.90
13322;DHT22;6730;46.248;6.930;2023-03-31T09:14:51;11.10;99.90
13322;DHT22;6730;46.248;6.930;2023-03-31T09:17:43;11.00;99.90
13322;DHT22;6730;46.248;6.930;2023-03-31T09:20:20;11.20;99.90
13322;DHT22;6730;46.248;6.930;2023-03-31T09:22:51;11.40;99.90
13322;DHT22;6730;46.248;6.930;2023-03-31T09:25:23;11.20;99.90
13322;DHT22;6730;46.248;6.930;2023-03-31T09:27:52;11.00;99.90
13322;DHT22;6730;46.248;6.930;2023-03-31T09:30:20;11.10;99.90
13322;DHT22;6730;46.248;6.930;2023-03-31T09:32:48;11.00;99.90
13322;DHT22;6730;46.248;6.930;2023-03-31T09:35:22;11.00;99.90
13322;DHT22;6730;46.248;6.930;2023-03-31T09:37:50;11.20;99.90
13322;DHT22;6730;46.248;6.930;2023-03-31T09:40:34;11.10;99.90
13322;DHT22;6730;46.248;6.930;2023-03-31T09:43:07;11.20;99.90
13322;DHT22;6730;46.248;6.930;2023-03-31T09:45:33;11.30;99.90
13322;DHT22;6730;46.248;6.930;2023-03-31T09:48:11;11.20;99.90
13322;DHT22;6730;46.248;6.930;2023-03-31T09:50:54;11.20;99.90
13322;DHT22;6730;46.248;6.930;2023-03-31T09:53:31;11.30;99.90
13322;DHT22;6730;46.248;6.930;2023-03-31T09:56:02;11.30;99.90
13322;DHT22;6730;46.248;6.930;2023-03-31T09:58:27;11.60;99.90
13322;DHT22;6730;46.248;6.930;2023-03-31T10:01:00;11.70;99.90
13322;DHT22;6730;46.248;6.930;2023-03-31T10:03:28;11.90;99.90
13322;DHT22;6730;46.248;6.930;2023-03-31T10:06:01;11.90;99.90
13322;DHT22;6730;46.248;6.930;2023-03-31T10:08:38;12.00;99.90
13322;DHT22;6730;46.248;6.930;2023-03-31T10:11:08;12.30;99.90
13322;DHT22;6730;46.248;6.930;2023-03-31T10:16:19;12.50;99.90
13322;DHT22;6730;46.248;6.930;2023-03-31T10:18:46;11.70;99.90
13322;DHT22;6730;46.248;6.930;2023-03-31T10:21:21;11.20;99.90
13322;DHT22;6730;46.248;6.930;2023-03-31T10:23:48;10.90;99.90
13322;DHT22;6730;46.248;6.930;2023-03-31T10:26:19;11.40;99.90
13322;DHT22;6730;46.248;6.930;2023-03-31T10:28:47;11.30;99.90
13322;DHT22;6730;46.248;6.930;2023-03-31T10:31:22;11.20;99.90
13322;DHT22;6730;46.248;6.930;2023-03-31T10:33:49;11.50;99.90
13322;DHT22;6730;46.248;6.930;2023-03-31T10:36:34;11.20;99.90
13322;DHT22;6730;46.248;6.930;2023-03-31T10:39:05;11.50;99.90
13322;DHT22;6730;46.248;6.930;2023-03-31T10:41:31;11.90;99.90
13322;DHT22;6730;46.248;6.930;2023-03-31T10:44:00;11.30;99.90
13322;DHT22;6730;46.248;6.930;2023-03-31T10:49:24;11.80;99.90
13322;DHT22;6730;46.248;6.930;2023-03-31T10:51:56;12.40;99.90
13322;DHT22;6730;46.248;6.930;2023-03-31T10:54:24;12.80;99.90
13322;DHT22;6730;46.248;6.930;2023-03-31T10:56:51;13.00;99.90
13322;DHT22;6730;46.248;6.930;2023-03-31T10:59:27;13.30;99.90
13322;DHT22;6730;46.248;6.930;2023-03-31T11:16:18;12.90;99.90
13322;DHT22;6730;46.248;6.930;2023-03-31T11:21:41;12.60;99.90
13322;DHT22;6730;46.248;6.930;2023-03-31T11:37:45;11.70;99.90
13322;DHT22;6730;46.248;6.930;2023-03-31T11:46:14;11.80;99.90
13322;DHT22;6730;46.248;6.930;2023-03-31T11:52:11;11.30;99.90
13322;DHT22;6730;46.248;6.930;2023-03-31T11:54:52;11.10;99.90
13322;DHT22;6730;46.248;6.930;2023-03-31T12:03:09;10.50;99.90
13322;DHT22;6730;46.248;6.930;2023-03-31T12:06:08;10.30;99.90
13322;DHT22;6730;46.248;6.930;2023-03-31T12:09:16;10.40;99.90
13322;DHT22;6730;46.248;6.930;2023-03-31T12:12:21;10.30;99.90
13322;DHT22;6730;46.248;6.930;2023-03-31T12:14:54;10.30;99.90
13322;DHT22;6730;46.248;6.930;2023-03-31T12:17:26;10.20;99.90
13322;DHT22;6730;46.248;6.930;2023-03-31T12:19:54;10.10;99.90
13322;DHT22;6730;46.248;6.930;2023-03-31T12:22:52;10.10;99.90
13322;DHT22;6730;46.248;6.930;2023-03-31T12:25:20;9.50;99.90
13322;DHT22;6730;46.248;6.930;2023-03-31T12:27:51;9.00;99.90
13322;DHT22;6730;46.248;6.930;2023-03-31T12:30:35;8.90;99.90
13322;DHT22;6730;46.248;6.930;2023-03-31T12:46:58;10.00;99.90
13322;DHT22;6730;46.248;6.930;2023-03-31T12:52:07;9.70;99.90
13322;DHT22;6730;46.248;6.930;2023-03-31T12:57:20;9.90;99.90
13322;DHT22;6730;46.248;6.930;2023-03-31T13:02:38;10.50;99.90
13322;DHT22;6730;46.248;6.930;2023-03-31T13:08:08;10.30;99.90
13322;DHT22;6730;46.248;6.930;2023-03-31T13:10:55;9.90;99.90
13322;DHT22;6730;46.248;6.930;2023-03-31T13:13:22;9.70;99.90
13322;DHT22;6730;46.248;6.930;2023-03-31T13:15:51;9.70;99.90
13322;DHT22;6730;46.248;6.930;2023-03-31T13:18:19;9.90;99.90
13322;DHT22;6730;46.248;6.930;2023-03-31T13:20:45;9.90;99.90
13322;DHT22;6730;46.248;6.930;2023-03-31T13:23:22;9.80;99.90
13322;DHT22;6730;46.248;6.930;2023-03-31T13:25:50;9.80;99.90
13322;DHT22;6730;46.248;6.930;2023-03-31T13:39:11;8.20;99.90
13322;DHT22;6730;46.248;6.930;2023-03-31T13:52:56;8.30;99.90
13322;DHT22;6730;46.248;6.930;2023-03-31T14:06:39;9.50;99.90
13322;DHT22;6730;46.248;6.930;2023-03-31T14:09:09;9.70;99.90
13322;DHT22;6730;46.248;6.930;2023-03-31T14:11:35;10.00;99.90
13322;DHT22;6730;46.248;6.930;2023-03-31T14:14:15;10.00;99.90
13322;DHT22;6730;46.248;6.930;2023-03-31T14:16:46;9.70;99.90
13322;DHT22;6730;46.248;6.930;2023-03-31T14:25:12;10.30;99.90
13322;DHT22;6730;46.248;6.930;2023-03-31T14:30:32;10.80;99.90
13322;DHT22;6730;46.248;6.930;2023-03-31T14:38:20;10.70;99.90
13322;DHT22;6730;46.248;6.930;2023-03-31T14:40:49;10.50;99.90
13322;DHT22;6730;46.248;6.930;2023-03-31T14:43:23;10.60;99.90
13322;DHT22;6730;46.248;6.930;2023-03-31T14:46:06;10.40;99.90
13322;DHT22;6730;46.248;6.930;2023-03-31T14:48:43;10.30;99.90
13322;DHT22;6730;46.248;6.930;2023-03-31T14:51:10;10.30;99.90
13322;DHT22;6730;46.248;6.930;2023-03-31T14:53:38;10.40;99.90
13322;DHT22;6730;46.248;6.930;2023-03-31T14:56:07;10.30;99.90
13322;DHT22;6730;46.248;6.930;2023-03-31T14:58:36;10.20;99.90
13322;DHT22;6730;46.248;6.930;2023-03-31T15:01:05;10.20;99.90
13322;DHT22;6730;46.248;6.930;2023-03-31T15:03:33;10.20;99.90
13322;DHT22;6730;46.248;6.930;2023-03-31T15:06:01;10.10;99.90
13322;DHT22;6730;46.248;6.930;2023-03-31T15:08:28;10.20;99.90
13322;DHT22;6730;46.248;6.930;2023-03-31T15:10:58;10.10;99.90
13322;DHT22;6730;46.248;6.930;2023-03-31T15:13:34;10.00;99.90
13322;DHT22;6730;46.248;6.930;2023-03-31T15:16:42;9.90;99.90
13322;DHT22;6730;46.248;6.930;2023-03-31T15:19:30;9.50;99.90
13322;DHT22;6730;46.248;6.930;2023-03-31T15:22:09;9.10;99.90
13322;DHT22;6730;46.248;6.930;2023-03-31T15:24:36;8.80;99.90
13322;DHT22;6730;46.248;6.930;2023-03-31T15:29:42;8.60;99.90
13322;DHT22;6730;46.248;6.930;2023-03-31T15:32:27;8.30;99.90
13322;DHT22;6730;46.248;6.930;2023-03-31T15:34:54;7.60;99.90
13322;DHT22;6730;46.248;6.930;2023-03-31T15:37:25;7.10;99.90
13322;DHT22;6730;46.248;6.930;2023-03-31T15:39:55;6.60;99.90
13322;DHT22;6730;46.248;6.930;2023-03-31T15:42:23;6.50;99.90
13322;DHT22;6730;46.248;6.930;2023-03-31T15:45:01;6.80;99.90
13322;DHT22;6730;46.248;6.930;2023-03-31T15:47:51;7.30;99.90
13322;DHT22;6730;46.248;6.930;2023-03-31T15:50:18;7.80;99.90
13322;DHT22;6730;46.248;6.930;2023-03-31T15:52:51;7.80;99.90
13322;DHT22;6730;46.248;6.930;2023-03-31T15:55:38;7.80;99.90
13322;DHT22;6730;46.248;6.930;2023-03-31T15:58:04;7.60;99.90
13322;DHT22;6730;46.248;6.930;2023-03-31T16:02:57;7.10;99.90
13322;DHT22;6730;46.248;6.930;2023-03-31T16:05:40;7.40;99.90
13322;DHT22;6730;46.248;6.930;2023-03-31T16:08:21;7.60;99.90
13322;DHT22;6730;46.248;6.930;2023-03-31T16:11:00;7.60;99.90
13322;DHT22;6730;46.248;6.930;2023-03-31T16:13:28;7.90;99.90
13322;DHT22;6730;46.248;6.930;2023-03-31T16:15:55;8.20;99.90
13322;DHT22;6730;46.248;6.930;2023-03-31T16:18:29;8.40;99.90
13322;DHT22;6730;46.248;6.930;2023-03-31T16:20:57;8.50;99.90
13322;DHT22;6730;46.248;6.930;2023-03-31T16:23:29;8.60;99.90
13322;DHT22;6730;46.248;6.930;2023-03-31T16:25:55;8.50;99.90
13322;DHT22;6730;46.248;6.930;2023-03-31T16:28:27;8.20;99.90
13322;DHT22;6730;46.248;6.930;2023-03-31T16:30:53;8.60;99.90
13322;DHT22;6730;46.248;6.930;2023-03-31T16:33:21;8.60;99.90
13322;DHT22;6730;46.248;6.930;2023-03-31T16:35:51;8.50;99.90
13322;DHT22;6730;46.248;6.930;2023-03-31T16:38:22;8.30;99.90
13322;DHT22;6730;46.248;6.930;2023-03-31T16:40:50;8.00;99.90
13322;DHT22;6730;46.248;6.930;2023-03-31T16:43:23;7.80;99.90
13322;DHT22;6730;46.248;6.930;2023-03-31T16:45:59;7.70;99.90
13322;DHT22;6730;46.248;6.930;2023-03-31T16:48:27;7.60;99.90
13322;DHT22;6730;46.248;6.930;2023-03-31T16:50:55;7.50;99.90
13322;DHT22;6730;46.248;6.930;2023-03-31T16:53:27;7.50;99.90
13322;DHT22;6730;46.248;6.930;2023-03-31T16:55:54;7.30;99.90
13322;DHT22;6730;46.248;6.930;2023-03-31T16:58:20;7.60;99.90
13322;DHT22;6730;46.248;6.930;2023-03-31T17:00:48;7.60;99.90
13322;DHT22;6730;46.248;6.930;2023-03-31T17:03:14;7.70;99.90
13322;DHT22;6730;46.248;6.930;2023-03-31T17:05:49;7.80;99.90
13322;DHT22;6730;46.248;6.930;2023-03-31T17:08:20;8.00;99.90
13322;DHT22;6730;46.248;6.930;2023-03-31T17:10:54;8.10;99.90
13322;DHT22;6730;46.248;6.930;2023-03-31T17:13:21;8.10;99.90
13322;DHT22;6730;46.248;6.930;2023-03-31T17:15:46;8.30;99.90
13322;DHT22;6730;46.248;6.930;2023-03-31T17:18:14;8.60;99.90
13322;DHT22;6730;46.248;6.930;2023-03-31T17:20:40;8.60;99.90
13322;DHT22;6730;46.248;6.930;2023-03-31T17:23:05;8.30;99.90
13322;DHT22;6730;46.248;6.930;2023-03-31T17:25:32;8.20;99.90
13322;DHT22;6730;46.248;6.930;2023-03-31T17:27:58;8.20;99.90
13322;DHT22;6730;46.248;6.930;2023-03-31T17:30:26;8.30;99.90
13322;DHT22;6730;46.248;6.930;2023-03-31T17:32:52;8.40;99.90
13322;DHT22;6730;46.248;6.930;2023-03-31T17:35:18;8.40;99.90
13322;DHT22;6730;46.248;6.930;2023-03-31T17:37:48;8.50;99.90
13322;DHT22;6730;46.248;6.930;2023-03-31T17:40:19;8.60;99.90
13322;DHT22;6730;46.248;6.930;2023-03-31T17:42:45;8.80;99.90
13322;DHT22;6730;46.248;6.930;2023-03-31T17:45:12;8.80;99.90
13322;DHT22;6730;46.248;6.930;2023-03-31T17:47:39;8.60;99.90
13322;DHT22;6730;46.248;6.930;2023-03-31T17:50:06;8.40;99.90
13322;DHT22;6730;46.248;6.930;2023-03-31T17:52:33;7.90;99.90
13322;DHT22;6730;46.248;6.930;2023-03-31T17:55:00;7.90;99.90
13322;DHT22;6730;46.248;6.930;2023-03-31T17:57:27;8.20;99.90
13322;DHT22;6730;46.248;6.930;2023-03-31T17:59:53;8.40;99.90
13322;DHT22;6730;46.248;6.930;2023-03-31T18:02:18;8.40;99.90
13322;DHT22;6730;46.248;6.930;2023-03-31T18:04:45;8.30;99.90
13322;DHT22;6730;46.248;6.930;2023-03-31T18:07:11;8.00;99.90
13322;DHT22;6730;46.248;6.930;2023-03-31T18:09:37;8.00;99.90
13322;DHT22;6730;46.248;6.930;2023-03-31T18:12:04;7.60;99.90
13322;DHT22;6730;46.248;6.930;2023-03-31T18:14:30;7.10;99.90
13322;DHT22;6730;46.248;6.930;2023-03-31T18:16:55;7.10;99.90
13322;DHT22;6730;46.248;6.930;2023-03-31T18:19:22;6.90;99.90
13322;DHT22;6730;46.248;6.930;2023-03-31T18:21:48;6.70;99.90
13322;DHT22;6730;46.248;6.930;2023-03-31T18:24:14;6.60;99.90
13322;DHT22;6730;46.248;6.930;2023-03-31T18:26:41;6.50;99.90
13322;DHT22;6730;46.248;6.930;2023-03-31T18:29:07;6.50;99.90
13322;DHT22;6730;46.248;6.930;2023-03-31T18:31:32;6.50;99.90
13322;DHT22;6730;46.248;6.930;2023-03-31T18:33:58;6.50;99.90
13322;DHT22;6730;46.248;6.930;2023-03-31T18:36:24;6.40;99.90
13322;DHT22;6730;46.248;6.930;2023-03-31T18:38:50;6.40;99.90
13322;DHT22;6730;46.248;6.930;2023-03-31T18:41:17;6.40;99.90
13322;DHT22;6730;46.248;6.930;2023-03-31T18:43:44;6.50;99.90
13322;DHT22;6730;46.248;6.930;2023-03-31T18:46:12;6.50;99.90
13322;DHT22;6730;46.248;6.930;2023-03-31T18:48:38;6.30;99.90
13322;DHT22;6730;46.248;6.930;2023-03-31T18:51:04;6.10;99.90
13322;DHT22;6730;46.248;6.930;2023-03-31T18:53:30;6.10;99.90
13322;DHT22;6730;46.248;6.930;2023-03-31T18:55:57;6.10;99.90
13322;DHT22;6730;46.248;6.930;2023-03-31T18:58:24;6.10;99.90
13322;DHT22;6730;46.248;6.930;2023-03-31T19:00:51;6.00;99.90
13322;DHT22;6730;46.248;6.930;2023-03-31T19:03:17;6.10;99.90
13322;DHT22;6730;46.248;6.930;2023-03-31T19:05:43;6.00;99.90
13322;DHT22;6730;46.248;6.930;2023-03-31T19:08:09;6.00;99.90
13322;DHT22;6730;46.248;6.930;2023-03-31T19:10:35;6.00;99.90
13322;DHT22;6730;46.248;6.930;2023-03-31T19:13:01;6.10;99.90
13322;DHT22;6730;46.248;6.930;2023-03-31T19:15:27;6.00;99.90